sensor_id;sensor_type;location;lat;lon;timestamp;pressure;altitude;pressure_sealevel;temperature;humidity
61528;BME280;47395;42.032;-8.634;2023-02-02T00:00:42;102245.25;;;7.11;72.90
61528;BME280;47395;42.032;-8.634;2023-02-02T00:02:43;102241.75;;;7.11;73.03
61528;BME280;47395;42.032;-8.634;2023-02-02T00:04:43;102234.88;;;7.03;72.48
61528;BME280;47395;42.032;-8.634;2023-02-02T00:06:44;102237.50;;;6.99;72.06
61528;BME280;47395;42.032;-8.634;2023-02-02T00:08:47;102235.97;;;6.77;72.68
61528;BME280;47395;42.032;-8.634;2023-02-02T00:10:48;102239.41;;;6.79;72.82
61528;BME280;47395;42.032;-8.634;2023-02-02T00:12:49;102244.53;;;6.97;73.47
61528;BME280;47395;42.032;-8.634;2023-02-02T00:14:50;102235.50;;;7.24;74.42
61528;BME280;47395;42.032;-8.634;2023-02-02T00:16:51;102243.03;;;7.57;74.31
61528;BME280;47395;42.032;-8.634;2023-02-02T00:18:53;102247.19;;;7.75;73.51
61528;BME280;47395;42.032;-8.634;2023-02-02T00:20:55;102239.22;;;7.84;71.45
61528;BME280;47395;42.032;-8.634;2023-02-02T00:22:55;102244.19;;;8.06;72.52
61528;BME280;47395;42.032;-8.634;2023-02-02T00:24:56;102245.75;;;8.20;71.18
61528;BME280;47395;42.032;-8.634;2023-02-02T00:26:57;102246.28;;;8.42;70.66
61528;BME280;47395;42.032;-8.634;2023-02-02T00:28:59;102247.25;;;8.36;69.17
61528;BME280;47395;42.032;-8.634;2023-02-02T00:31:00;102247.47;;;8.21;68.79
61528;BME280;47395;42.032;-8.634;2023-02-02T00:33:00;102250.22;;;8.12;68.32
61528;BME280;47395;42.032;-8.634;2023-02-02T00:35:01;102242.63;;;7.91;68.85
61528;BME280;47395;42.032;-8.634;2023-02-02T00:37:02;102245.41;;;7.77;69.31
61528;BME280;47395;42.032;-8.634;2023-02-02T00:39:02;102249.94;;;7.66;69.86
61528;BME280;47395;42.032;-8.634;2023-02-02T00:41:03;102248.38;;;7.49;69.82
61528;BME280;47395;42.032;-8.634;2023-02-02T00:43:04;102239.69;;;7.42;70.12
61528;BME280;47395;42.032;-8.634;2023-02-02T00:45:05;102242.50;;;7.25;70.64
61528;BME280;47395;42.032;-8.634;2023-02-02T00:47:19;102238.31;;;7.07;71.22
61528;BME280;47395;42.032;-8.634;2023-02-02T00:49:19;102236.72;;;6.90;71.51
61528;BME280;47395;42.032;-8.634;2023-02-02T00:51:20;102240.22;;;6.91;71.51
61528;BME280;47395;42.032;-8.634;2023-02-02T00:53:21;102237.59;;;6.88;71.60
61528;BME280;47395;42.032;-8.634;2023-02-02T00:55:22;102241.13;;;6.88;71.94
61528;BME280;47395;42.032;-8.634;2023-02-02T00:57:22;102231.53;;;6.84;72.00
61528;BME280;47395;42.032;-8.634;2023-02-02T00:59:23;102230.66;;;6.82;72.55
61528;BME280;47395;42.032;-8.634;2023-02-02T01:01:23;102226.31;;;6.84;72.58
61528;BME280;47395;42.032;-8.634;2023-02-02T01:03:24;102228.03;;;6.84;72.66
61528;BME280;47395;42.032;-8.634;2023-02-02T01:05:25;102228.91;;;6.86;72.27
61528;BME280;47395;42.032;-8.634;2023-02-02T01:07:25;102229.94;;;6.64;73.81
61528;BME280;47395;42.032;-8.634;2023-02-02T01:09:26;102222.81;;;6.82;74.16
61528;BME280;47395;42.032;-8.634;2023-02-02T01:11:27;102227.00;;;7.02;73.93
61528;BME280;47395;42.032;-8.634;2023-02-02T01:13:28;102220.78;;;7.14;74.35
61528;BME280;47395;42.032;-8.634;2023-02-02T01:15:29;102219.53;;;7.48;74.58
61528;BME280;47395;42.032;-8.634;2023-02-02T01:17:30;102229.94;;;7.55;71.99
61528;BME280;47395;42.032;-8.634;2023-02-02T01:19:32;102228.97;;;7.66;71.23
61528;BME280;47395;42.032;-8.634;2023-02-02T01:21:33;102230.66;;;7.68;70.70
61528;BME280;47395;42.032;-8.634;2023-02-02T01:23:34;102218.66;;;7.49;70.37
61528;BME280;47395;42.032;-8.634;2023-02-02T01:25:35;102218.75;;;7.38;71.82
61528;BME280;47395;42.032;-8.634;2023-02-02T01:27:37;102224.00;;;7.39;71.97
61528;BME280;47395;42.032;-8.634;2023-02-02T01:29:39;102215.31;;;7.34;71.21
61528;BME280;47395;42.032;-8.634;2023-02-02T01:31:40;102224.91;;;7.35;71.27
61528;BME280;47395;42.032;-8.634;2023-02-02T01:33:41;102223.28;;;7.25;71.40
61528;BME280;47395;42.032;-8.634;2023-02-02T01:35:46;102224.22;;;7.17;71.58
61528;BME280;47395;42.032;-8.634;2023-02-02T01:37:47;102230.44;;;7.07;71.73
61528;BME280;47395;42.032;-8.634;2023-02-02T01:39:47;102226.13;;;7.03;72.14
61528;BME280;47395;42.032;-8.634;2023-02-02T01:41:48;102231.38;;;7.01;72.20
61528;BME280;47395;42.032;-8.634;2023-02-02T01:43:50;102228.00;;;6.90;72.25
61528;BME280;47395;42.032;-8.634;2023-02-02T01:45:52;102225.41;;;6.87;72.49
61528;BME280;47395;42.032;-8.634;2023-02-02T01:47:54;102224.66;;;6.72;72.59
61528;BME280;47395;42.032;-8.634;2023-02-02T01:49:56;102222.88;;;6.73;72.78
61528;BME280;47395;42.032;-8.634;2023-02-02T01:51:58;102225.50;;;6.73;72.67
61528;BME280;47395;42.032;-8.634;2023-02-02T01:54:00;102224.66;;;6.71;72.73
61528;BME280;47395;42.032;-8.634;2023-02-02T01:56:02;102225.53;;;6.71;72.64
61528;BME280;47395;42.032;-8.634;2023-02-02T01:58:06;102222.00;;;6.75;72.50
61528;BME280;47395;42.032;-8.634;2023-02-02T02:00:10;102227.22;;;6.78;72.64
61528;BME280;47395;42.032;-8.634;2023-02-02T02:02:14;102220.16;;;6.85;72.59
61528;BME280;47395;42.032;-8.634;2023-02-02T02:04:15;102217.56;;;6.82;72.40
61528;BME280;47395;42.032;-8.634;2023-02-02T02:06:18;102220.25;;;6.77;72.32
61528;BME280;47395;42.032;-8.634;2023-02-02T02:08:23;102216.75;;;6.75;72.15
61528;BME280;47395;42.032;-8.634;2023-02-02T02:10:25;102221.19;;;6.69;71.88
61528;BME280;47395;42.032;-8.634;2023-02-02T02:12:26;102215.09;;;6.65;72.54
61528;BME280;47395;42.032;-8.634;2023-02-02T02:14:26;102216.84;;;6.66;72.56
61528;BME280;47395;42.032;-8.634;2023-02-02T02:18:59;102226.41;;;6.67;72.53
61528;BME280;47395;42.032;-8.634;2023-02-02T02:30:21;102218.69;;;6.53;73.21
61528;BME280;47395;42.032;-8.634;2023-02-02T02:33:35;102210.69;;;6.69;73.21
61528;BME280;47395;42.032;-8.634;2023-02-02T02:35:48;102220.25;;;6.74;72.84
61528;BME280;47395;42.032;-8.634;2023-02-02T02:42:21;102214.88;;;6.91;72.73
61528;BME280;47395;42.032;-8.634;2023-02-02T02:44:23;102208.88;;;6.80;72.77
61528;BME280;47395;42.032;-8.634;2023-02-02T02:46:26;102221.91;;;6.85;72.40
61528;BME280;47395;42.032;-8.634;2023-02-02T02:48:27;102216.72;;;6.82;72.55
61528;BME280;47395;42.032;-8.634;2023-02-02T02:50:28;102215.91;;;6.75;72.14
61528;BME280;47395;42.032;-8.634;2023-02-02T02:52:29;102218.53;;;6.70;72.33
61528;BME280;47395;42.032;-8.634;2023-02-02T02:54:34;102216.75;;;6.74;72.49
61528;BME280;47395;42.032;-8.634;2023-02-02T02:56:41;102218.47;;;6.76;72.75
61528;BME280;47395;42.032;-8.634;2023-02-02T02:58:48;102211.56;;;6.72;72.79
61528;BME280;47395;42.032;-8.634;2023-02-02T03:03:23;102207.28;;;6.60;72.69
61528;BME280;47395;42.032;-8.634;2023-02-02T03:08:03;102193.88;;;6.96;74.04
61528;BME280;47395;42.032;-8.634;2023-02-02T03:10:05;102204.06;;;7.24;73.93
61528;BME280;47395;42.032;-8.634;2023-02-02T03:12:07;102200.38;;;7.42;73.14
61528;BME280;47395;42.032;-8.634;2023-02-02T03:14:08;102201.28;;;7.41;72.32
61528;BME280;47395;42.032;-8.634;2023-02-02T03:16:09;102193.13;;;7.63;73.38
61528;BME280;47395;42.032;-8.634;2023-02-02T03:18:14;102192.03;;;7.78;72.47
61528;BME280;47395;42.032;-8.634;2023-02-02T03:20:16;102195.53;;;7.80;71.10
61528;BME280;47395;42.032;-8.634;2023-02-02T03:22:17;102192.19;;;7.67;70.20
61528;BME280;47395;42.032;-8.634;2023-02-02T03:24:18;102190.72;;;7.44;69.94
61528;BME280;47395;42.032;-8.634;2023-02-02T03:26:18;102184.03;;;7.18;70.07
61528;BME280;47395;42.032;-8.634;2023-02-02T03:28:19;102187.00;;;6.83;71.55
61528;BME280;47395;42.032;-8.634;2023-02-02T03:30:21;102182.78;;;6.64;72.43
61528;BME280;47395;42.032;-8.634;2023-02-02T03:32:22;102180.19;;;6.64;71.86
61528;BME280;47395;42.032;-8.634;2023-02-02T03:34:23;102182.13;;;6.44;72.07
61528;BME280;47395;42.032;-8.634;2023-02-02T03:36:23;102186.63;;;6.24;72.77
61528;BME280;47395;42.032;-8.634;2023-02-02T03:38:24;102188.44;;;6.11;73.12
61528;BME280;47395;42.032;-8.634;2023-02-02T03:40:26;102198.09;;;5.94;73.81
61528;BME280;47395;42.032;-8.634;2023-02-02T03:42:26;102189.41;;;5.90;73.93
61528;BME280;47395;42.032;-8.634;2023-02-02T03:44:27;102197.25;;;5.88;74.25
61528;BME280;47395;42.032;-8.634;2023-02-02T03:46:28;102202.63;;;5.60;74.87
61528;BME280;47395;42.032;-8.634;2023-02-02T03:48:29;102210.50;;;5.53;76.23
61528;BME280;47395;42.032;-8.634;2023-02-02T03:50:30;102200.00;;;5.64;76.01
61528;BME280;47395;42.032;-8.634;2023-02-02T03:52:31;102198.19;;;5.75;75.58
61528;BME280;47395;42.032;-8.634;2023-02-02T03:54:32;102201.63;;;5.86;75.28
61528;BME280;47395;42.032;-8.634;2023-02-02T03:56:32;102202.47;;;5.92;75.14
61528;BME280;47395;42.032;-8.634;2023-02-02T03:58:33;102198.13;;;5.86;74.94
61528;BME280;47395;42.032;-8.634;2023-02-02T04:00:34;102193.75;;;5.90;74.66
61528;BME280;47395;42.032;-8.634;2023-02-02T04:02:34;102198.97;;;5.93;74.38
61528;BME280;47395;42.032;-8.634;2023-02-02T04:04:35;102204.19;;;5.94;74.24
61528;BME280;47395;42.032;-8.634;2023-02-02T04:06:36;102207.72;;;5.88;74.06
61528;BME280;47395;42.032;-8.634;2023-02-02T04:08:36;102209.47;;;5.83;74.07
61528;BME280;47395;42.032;-8.634;2023-02-02T04:10:38;102202.53;;;5.79;74.04
61528;BME280;47395;42.032;-8.634;2023-02-02T04:12:41;102203.41;;;5.75;73.66
61528;BME280;47395;42.032;-8.634;2023-02-02T04:14:42;102204.31;;;5.72;73.68
61528;BME280;47395;42.032;-8.634;2023-02-02T04:16:43;102199.97;;;5.71;73.45
61528;BME280;47395;42.032;-8.634;2023-02-02T04:18:43;102205.19;;;5.67;73.34
61528;BME280;47395;42.032;-8.634;2023-02-02T04:20:44;102205.22;;;5.62;73.29
61528;BME280;47395;42.032;-8.634;2023-02-02T04:22:44;102200.00;;;5.54;73.23
61528;BME280;47395;42.032;-8.634;2023-02-02T04:24:45;102205.28;;;5.49;73.14
61528;BME280;47395;42.032;-8.634;2023-02-02T04:26:46;102200.91;;;5.47;72.90
61528;BME280;47395;42.032;-8.634;2023-02-02T04:28:46;102206.16;;;5.42;73.64
61528;BME280;47395;42.032;-8.634;2023-02-02T04:30:47;102205.28;;;5.43;74.00
61528;BME280;47395;42.032;-8.634;2023-02-02T04:32:47;102202.66;;;5.53;75.15
61528;BME280;47395;42.032;-8.634;2023-02-02T04:34:50;102202.56;;;5.73;75.97
61528;BME280;47395;42.032;-8.634;2023-02-02T04:36:50;102201.56;;;6.04;76.42
61528;BME280;47395;42.032;-8.634;2023-02-02T04:38:51;102201.50;;;6.16;75.57
61528;BME280;47395;42.032;-8.634;2023-02-02T04:40:52;102213.63;;;6.25;75.09
61528;BME280;47395;42.032;-8.634;2023-02-02T04:42:53;102213.63;;;6.25;75.03
61528;BME280;47395;42.032;-8.634;2023-02-02T04:44:53;102221.41;;;6.34;74.91
61528;BME280;47395;42.032;-8.634;2023-02-02T04:46:54;102211.66;;;6.60;75.46
61528;BME280;47395;42.032;-8.634;2023-02-02T04:48:55;102219.50;;;6.61;74.21
61528;BME280;47395;42.032;-8.634;2023-02-02T04:50:59;102208.22;;;6.50;72.70
61528;BME280;47395;42.032;-8.634;2023-02-02T04:53:00;102213.50;;;6.45;72.87
61528;BME280;47395;42.032;-8.634;2023-02-02T04:55:00;102224.03;;;6.39;72.90
61528;BME280;47395;42.032;-8.634;2023-02-02T04:57:01;102217.94;;;6.35;72.96
61528;BME280;47395;42.032;-8.634;2023-02-02T04:59:02;102220.63;;;6.24;72.87
61528;BME280;47395;42.032;-8.634;2023-02-02T05:03:19;102238.16;;;6.02;73.66
61528;BME280;47395;42.032;-8.634;2023-02-02T05:05:20;102232.09;;;5.97;74.04
61528;BME280;47395;42.032;-8.634;2023-02-02T05:07:20;102232.09;;;5.94;73.84
61528;BME280;47395;42.032;-8.634;2023-02-02T05:09:21;102232.13;;;5.89;73.75
61528;BME280;47395;42.032;-8.634;2023-02-02T05:11:22;102229.53;;;5.84;73.67
61528;BME280;47395;42.032;-8.634;2023-02-02T05:13:22;102234.78;;;5.80;73.67
61528;BME280;47395;42.032;-8.634;2023-02-02T05:15:23;102233.94;;;5.73;73.84
61528;BME280;47395;42.032;-8.634;2023-02-02T05:17:24;102243.56;;;5.66;73.77
61528;BME280;47395;42.032;-8.634;2023-02-02T05:19:24;102232.25;;;5.59;73.68
61528;BME280;47395;42.032;-8.634;2023-02-02T05:21:25;102245.31;;;5.56;73.61
61528;BME280;47395;42.032;-8.634;2023-02-02T05:23:26;102242.72;;;5.52;73.54
61528;BME280;47395;42.032;-8.634;2023-02-02T05:25:26;102251.44;;;5.49;73.59
61528;BME280;47395;42.032;-8.634;2023-02-02T05:27:27;102247.97;;;5.47;73.39
61528;BME280;47395;42.032;-8.634;2023-02-02T05:29:28;102246.25;;;5.41;73.39
61528;BME280;47395;42.032;-8.634;2023-02-02T05:31:29;102247.13;;;5.42;73.67
61528;BME280;47395;42.032;-8.634;2023-02-02T05:33:31;102244.50;;;5.39;73.24
61528;BME280;47395;42.032;-8.634;2023-02-02T05:35:31;102249.72;;;5.37;73.17
61528;BME280;47395;42.032;-8.634;2023-02-02T05:37:32;102259.34;;;5.22;74.22
61528;BME280;47395;42.032;-8.634;2023-02-02T05:39:33;102253.22;;;5.31;74.20
61528;BME280;47395;42.032;-8.634;2023-02-02T05:41:33;102254.97;;;5.32;74.60
61528;BME280;47395;42.032;-8.634;2023-02-02T05:43:34;102251.50;;;5.35;74.48
61528;BME280;47395;42.032;-8.634;2023-02-02T05:45:34;102256.72;;;5.32;74.30
61528;BME280;47395;42.032;-8.634;2023-02-02T05:47:35;102270.66;;;5.31;74.61
61528;BME280;47395;42.032;-8.634;2023-02-02T05:49:36;102265.44;;;5.29;73.96
61528;BME280;47395;42.032;-8.634;2023-02-02T05:51:38;102270.66;;;5.29;73.79
61528;BME280;47395;42.032;-8.634;2023-02-02T05:53:40;102266.31;;;5.20;74.08
61528;BME280;47395;42.032;-8.634;2023-02-02T05:55:40;102275.91;;;5.21;73.75
61528;BME280;47395;42.032;-8.634;2023-02-02T05:57:41;102274.16;;;5.17;73.94
61528;BME280;47395;42.032;-8.634;2023-02-02T05:59:41;102288.09;;;5.10;74.32
61528;BME280;47395;42.032;-8.634;2023-02-02T06:01:43;102275.91;;;5.04;74.75
61528;BME280;47395;42.032;-8.634;2023-02-02T06:03:44;102289.84;;;5.03;74.57
61528;BME280;47395;42.032;-8.634;2023-02-02T06:05:44;102280.28;;;5.04;74.52
61528;BME280;47395;42.032;-8.634;2023-02-02T06:07:45;102280.25;;;5.05;74.41
61528;BME280;47395;42.032;-8.634;2023-02-02T06:09:46;102278.50;;;5.01;74.01
61528;BME280;47395;42.032;-8.634;2023-02-02T06:11:46;102284.63;;;4.94;73.93
61528;BME280;47395;42.032;-8.634;2023-02-02T06:13:47;102281.13;;;4.95;73.93
61528;BME280;47395;42.032;-8.634;2023-02-02T06:15:47;102280.28;;;4.93;73.90
61528;BME280;47395;42.032;-8.634;2023-02-02T06:17:48;102280.28;;;4.91;73.99
61528;BME280;47395;42.032;-8.634;2023-02-02T06:19:49;102282.00;;;4.86;74.25
61528;BME280;47395;42.032;-8.634;2023-02-02T06:21:50;102287.22;;;4.85;74.19
61528;BME280;47395;42.032;-8.634;2023-02-02T06:23:50;102281.13;;;4.84;74.69
61528;BME280;47395;42.032;-8.634;2023-02-02T06:25:51;102297.69;;;4.85;75.01
61528;BME280;47395;42.032;-8.634;2023-02-02T06:27:55;102297.66;;;4.78;74.71
61528;BME280;47395;42.032;-8.634;2023-02-02T06:29:56;102294.19;;;4.79;74.93
61528;BME280;47395;42.032;-8.634;2023-02-02T06:31:57;102288.09;;;4.79;74.41
61528;BME280;47395;42.032;-8.634;2023-02-02T06:33:57;102285.50;;;4.80;74.37
61528;BME280;47395;42.032;-8.634;2023-02-02T06:35:59;102288.09;;;4.80;74.38
61528;BME280;47395;42.032;-8.634;2023-02-02T06:38:00;102290.69;;;4.79;74.09
61528;BME280;47395;42.032;-8.634;2023-02-02T06:40:01;102295.94;;;4.80;73.60
61528;BME280;47395;42.032;-8.634;2023-02-02T06:42:01;102294.16;;;4.81;73.87
61528;BME280;47395;42.032;-8.634;2023-02-02T06:44:02;102294.19;;;4.84;73.61
61528;BME280;47395;42.032;-8.634;2023-02-02T06:46:03;102300.25;;;4.88;74.13
61528;BME280;47395;42.032;-8.634;2023-02-02T06:48:03;102302.88;;;4.91;74.48
61528;BME280;47395;42.032;-8.634;2023-02-02T06:50:10;102306.38;;;4.90;74.52
61528;BME280;47395;42.032;-8.634;2023-02-02T06:52:11;102302.88;;;4.91;74.56
61528;BME280;47395;42.032;-8.634;2023-02-02T06:54:11;102303.78;;;4.91;74.64
61528;BME280;47395;42.032;-8.634;2023-02-02T06:56:12;102305.50;;;4.91;74.38
61528;BME280;47395;42.032;-8.634;2023-02-02T06:58:13;102300.28;;;4.89;74.41
61528;BME280;47395;42.032;-8.634;2023-02-02T07:00:14;102310.72;;;4.78;74.62
61528;BME280;47395;42.032;-8.634;2023-02-02T07:02:14;102315.06;;;4.82;74.35
61528;BME280;47395;42.032;-8.634;2023-02-02T07:04:16;102301.16;;;4.82;74.34
61528;BME280;47395;42.032;-8.634;2023-02-02T07:06:20;102315.94;;;4.81;74.06
61528;BME280;47395;42.032;-8.634;2023-02-02T07:08:21;102308.97;;;4.73;74.49
61528;BME280;47395;42.032;-8.634;2023-02-02T07:10:22;102309.81;;;4.72;74.97
61528;BME280;47395;42.032;-8.634;2023-02-02T07:12:23;102313.31;;;4.69;75.22
61528;BME280;47395;42.032;-8.634;2023-02-02T07:14:24;102308.97;;;4.73;75.21
61528;BME280;47395;42.032;-8.634;2023-02-02T07:16:25;102306.34;;;4.68;75.02
61528;BME280;47395;42.032;-8.634;2023-02-02T07:18:25;102310.69;;;4.67;74.56
61528;BME280;47395;42.032;-8.634;2023-02-02T07:20:26;102319.41;;;4.71;74.47
61528;BME280;47395;42.032;-8.634;2023-02-02T07:22:27;102322.88;;;4.62;74.33
61528;BME280;47395;42.032;-8.634;2023-02-02T07:24:27;102317.63;;;4.61;74.68
61528;BME280;47395;42.032;-8.634;2023-02-02T07:26:28;102316.78;;;4.65;74.53
61528;BME280;47395;42.032;-8.634;2023-02-02T07:28:28;102323.75;;;4.63;74.58
61528;BME280;47395;42.032;-8.634;2023-02-02T07:30:29;102325.50;;;4.65;74.46
61528;BME280;47395;42.032;-8.634;2023-02-02T07:32:30;102321.13;;;4.63;73.97
61528;BME280;47395;42.032;-8.634;2023-02-02T07:34:31;102322.00;;;4.60;73.44
61528;BME280;47395;42.032;-8.634;2023-02-02T07:36:31;102328.06;;;4.61;73.30
61528;BME280;47395;42.032;-8.634;2023-02-02T07:38:32;102322.84;;;4.59;72.64
61528;BME280;47395;42.032;-8.634;2023-02-02T07:40:33;102325.47;;;4.59;72.55
61528;BME280;47395;42.032;-8.634;2023-02-02T07:42:33;102331.56;;;4.56;72.86
61528;BME280;47395;42.032;-8.634;2023-02-02T07:44:34;102335.94;;;4.57;72.95
61528;BME280;47395;42.032;-8.634;2023-02-02T07:46:35;102337.66;;;4.55;72.97
61528;BME280;47395;42.032;-8.634;2023-02-02T07:48:35;102335.94;;;4.57;72.85
61528;BME280;47395;42.032;-8.634;2023-02-02T07:50:36;102344.63;;;4.55;72.72
61528;BME280;47395;42.032;-8.634;2023-02-02T07:52:37;102345.50;;;4.59;72.59
61528;BME280;47395;42.032;-8.634;2023-02-02T07:54:37;102342.88;;;4.60;72.55
61528;BME280;47395;42.032;-8.634;2023-02-02T07:56:38;102352.47;;;4.66;72.82
61528;BME280;47395;42.032;-8.634;2023-02-02T07:58:39;102352.50;;;4.74;72.88
61528;BME280;47395;42.032;-8.634;2023-02-02T08:00:40;102352.47;;;4.78;72.57
61528;BME280;47395;42.032;-8.634;2023-02-02T08:02:40;102354.22;;;4.82;72.59
61528;BME280;47395;42.032;-8.634;2023-02-02T08:04:41;102353.38;;;4.85;72.22
61528;BME280;47395;42.032;-8.634;2023-02-02T08:06:42;102361.22;;;4.90;71.94
61528;BME280;47395;42.032;-8.634;2023-02-02T08:08:42;102358.63;;;4.91;72.01
61528;BME280;47395;42.032;-8.634;2023-02-02T08:10:47;102356.00;;;4.90;72.99
61528;BME280;47395;42.032;-8.634;2023-02-02T08:12:47;102367.31;;;4.98;73.36
61528;BME280;47395;42.032;-8.634;2023-02-02T08:14:48;102362.09;;;5.03;73.45
61528;BME280;47395;42.032;-8.634;2023-02-02T08:16:49;102369.06;;;5.10;73.40
61528;BME280;47395;42.032;-8.634;2023-02-02T08:18:50;102369.94;;;5.17;73.45
61528;BME280;47395;42.032;-8.634;2023-02-02T08:20:50;102374.31;;;5.18;73.39
61528;BME280;47395;42.032;-8.634;2023-02-02T08:22:51;102373.44;;;5.14;73.23
61528;BME280;47395;42.032;-8.634;2023-02-02T08:24:52;102383.03;;;5.18;73.28
61528;BME280;47395;42.032;-8.634;2023-02-02T08:26:53;102383.91;;;5.25;73.03
61528;BME280;47395;42.032;-8.634;2023-02-02T08:28:55;102390.00;;;5.32;72.68
61528;BME280;47395;42.032;-8.634;2023-02-02T08:30:55;102392.63;;;5.44;72.79
61528;BME280;47395;42.032;-8.634;2023-02-02T08:32:56;102382.16;;;5.54;71.74
61528;BME280;47395;42.032;-8.634;2023-02-02T08:34:57;102391.75;;;5.59;71.43
61528;BME280;47395;42.032;-8.634;2023-02-02T08:36:57;102386.50;;;5.66;71.14
61528;BME280;47395;42.032;-8.634;2023-02-02T08:39:07;102398.69;;;5.82;70.81
61528;BME280;47395;42.032;-8.634;2023-02-02T08:41:10;102402.16;;;5.91;70.87
61528;BME280;47395;42.032;-8.634;2023-02-02T08:43:12;102391.66;;;5.98;70.46
61528;BME280;47395;42.032;-8.634;2023-02-02T08:45:12;102398.63;;;6.07;70.56
61528;BME280;47395;42.032;-8.634;2023-02-02T08:47:13;102397.75;;;6.18;70.13
61528;BME280;47395;42.032;-8.634;2023-02-02T08:49:13;102401.28;;;6.04;69.84
61528;BME280;47395;42.032;-8.634;2023-02-02T08:51:15;102402.97;;;6.25;70.33
61528;BME280;47395;42.032;-8.634;2023-02-02T08:53:16;102406.41;;;6.32;69.85
61528;BME280;47395;42.032;-8.634;2023-02-02T08:55:16;102404.66;;;6.34;69.40
61528;BME280;47395;42.032;-8.634;2023-02-02T08:57:17;102409.91;;;6.31;68.99
61528;BME280;47395;42.032;-8.634;2023-02-02T08:59:18;102408.91;;;6.63;69.32
61528;BME280;47395;42.032;-8.634;2023-02-02T09:01:20;102406.06;;;8.03;65.37
61528;BME280;47395;42.032;-8.634;2023-02-02T09:03:21;102411.47;;;9.81;58.77
61528;BME280;47395;42.032;-8.634;2023-02-02T09:05:22;102412.53;;;11.38;54.75
61528;BME280;47395;42.032;-8.634;2023-02-02T09:07:23;102416.66;;;13.34;48.70
61528;BME280;47395;42.032;-8.634;2023-02-02T09:09:23;102412.75;;;14.68;45.70
61528;BME280;47395;42.032;-8.634;2023-02-02T09:11:24;102409.09;;;16.21;42.12
61528;BME280;47395;42.032;-8.634;2023-02-02T09:13:24;102397.19;;;17.05;39.99
61528;BME280;47395;42.032;-8.634;2023-02-02T09:15:25;102404.88;;;17.98;38.25
61528;BME280;47395;42.032;-8.634;2023-02-02T09:17:26;102415.13;;;18.24;37.17
61528;BME280;47395;42.032;-8.634;2023-02-02T09:19:30;102411.28;;;18.62;36.32
61528;BME280;47395;42.032;-8.634;2023-02-02T09:21:30;102409.03;;;18.38;36.47
61528;BME280;47395;42.032;-8.634;2023-02-02T09:23:36;102412.06;;;18.48;36.41
61528;BME280;47395;42.032;-8.634;2023-02-02T09:25:37;102419.69;;;18.54;35.61
61528;BME280;47395;42.032;-8.634;2023-02-02T09:27:38;102424.84;;;19.22;35.03
61528;BME280;47395;42.032;-8.634;2023-02-02T09:29:40;102427.19;;;18.96;35.65
61528;BME280;47395;42.032;-8.634;2023-02-02T09:31:41;102424.97;;;19.35;34.51
61528;BME280;47395;42.032;-8.634;2023-02-02T09:33:42;102424.22;;;20.36;33.28
61528;BME280;47395;42.032;-8.634;2023-02-02T09:35:42;102426.28;;;21.02;32.08
61528;BME280;47395;42.032;-8.634;2023-02-02T09:37:43;102423.63;;;21.02;32.01
61528;BME280;47395;42.032;-8.634;2023-02-02T09:39:44;102424.91;;;20.25;31.73
61528;BME280;47395;42.032;-8.634;2023-02-02T09:42:08;102424.91;;;21.09;31.73
61528;BME280;47395;42.032;-8.634;2023-02-02T09:48:45;102434.84;;;20.94;31.48
61528;BME280;47395;42.032;-8.634;2023-02-02T09:50:51;102438.66;;;21.71;30.52
61528;BME280;47395;42.032;-8.634;2023-02-02T09:52:57;102445.84;;;22.23;29.27
61528;BME280;47395;42.032;-8.634;2023-02-02T09:55:03;102446.84;;;21.96;29.99
61528;BME280;47395;42.032;-8.634;2023-02-02T09:57:09;102452.41;;;21.93;30.32
61528;BME280;47395;42.032;-8.634;2023-02-02T09:59:15;102444.00;;;21.71;30.09
61528;BME280;47395;42.032;-8.634;2023-02-02T10:01:21;102447.25;;;22.02;30.41
61528;BME280;47395;42.032;-8.634;2023-02-02T10:03:26;102446.78;;;22.35;29.50
61528;BME280;47395;42.032;-8.634;2023-02-02T10:05:35;102444.19;;;23.08;29.04
61528;BME280;47395;42.032;-8.634;2023-02-02T10:07:44;102449.28;;;23.60;27.55
61528;BME280;47395;42.032;-8.634;2023-02-02T10:09:56;102445.78;;;22.86;29.21
61528;BME280;47395;42.032;-8.634;2023-02-02T10:14:04;102445.97;;;22.72;28.93
61528;BME280;47395;42.032;-8.634;2023-02-02T10:16:13;102441.31;;;23.58;27.68
61528;BME280;47395;42.032;-8.634;2023-02-02T10:18:26;102448.25;;;22.65;28.60
61528;BME280;47395;42.032;-8.634;2023-02-02T10:20:36;102443.06;;;23.71;27.52
61528;BME280;47395;42.032;-8.634;2023-02-02T10:22:37;102445.31;;;24.34;27.27
61528;BME280;47395;42.032;-8.634;2023-02-02T10:24:38;102461.25;;;24.15;26.84
61528;BME280;47395;42.032;-8.634;2023-02-02T10:26:42;102460.28;;;24.83;26.37
61528;BME280;47395;42.032;-8.634;2023-02-02T10:29:28;102451.03;;;24.07;27.42
61528;BME280;47395;42.032;-8.634;2023-02-02T10:31:12;102454.75;;;24.96;25.66
61528;BME280;47395;42.032;-8.634;2023-02-02T10:33:23;102458.97;;;26.16;24.59
61528;BME280;47395;42.032;-8.634;2023-02-02T10:35:48;102462.78;;;26.14;24.67
61528;BME280;47395;42.032;-8.634;2023-02-02T10:38:05;102462.91;;;26.12;24.51
61528;BME280;47395;42.032;-8.634;2023-02-02T10:45:14;102464.28;;;27.48;22.65
61528;BME280;47395;42.032;-8.634;2023-02-02T10:47:25;102464.81;;;27.81;22.41
61528;BME280;47395;42.032;-8.634;2023-02-02T10:49:30;102465.44;;;28.03;22.62
61528;BME280;47395;42.032;-8.634;2023-02-02T10:51:32;102470.88;;;28.03;23.01
61528;BME280;47395;42.032;-8.634;2023-02-02T10:53:35;102463.22;;;29.27;20.82
61528;BME280;47395;42.032;-8.634;2023-02-02T10:57:48;102476.97;;;28.05;22.26
61528;BME280;47395;42.032;-8.634;2023-02-02T10:59:57;102474.41;;;28.41;21.68
61528;BME280;47395;42.032;-8.634;2023-02-02T11:02:01;102466.28;;;27.56;22.33
61528;BME280;47395;42.032;-8.634;2023-02-02T11:04:02;102470.59;;;27.96;22.86
61528;BME280;47395;42.032;-8.634;2023-02-02T11:06:22;102472.06;;;28.28;22.04
61528;BME280;47395;42.032;-8.634;2023-02-02T11:08:55;102473.72;;;28.39;21.59
61528;BME280;47395;42.032;-8.634;2023-02-02T11:10:56;102469.75;;;27.86;21.94
61528;BME280;47395;42.032;-8.634;2023-02-02T11:12:57;102473.06;;;27.80;22.40
61528;BME280;47395;42.032;-8.634;2023-02-02T11:15:07;102470.13;;;28.85;21.18